Choose a state:
Most recent flow and stage for Montana
(Stations highlighted in red are currently above flood stage)
USGS
station
ID
USGS station name NWS
flood
stage
(ft)
Most recent
stage
(ft)
Most recent
flow
(cfs)
Historical
peaks
(cfs)
Most recent
local
date/time
NWS
station
ID
05014300 Swiftcurrent Cr ab Swiftcurrent Lk at Many Glacier   3.27 67 2,000 2014-10-25 13:30:00 SCLM8
05014500 Swiftcurrent Creek at Many Glacier MT   1.81 37 6,700 2014-10-21 15:30:00 MGGM8
05015500 Lake Sherburne at Sherburne MT   4766.92

 

  2014-10-25 13:00:00 SBUM8
05017500 St. Mary River near Babb MT   1.99 212 16,500 2014-10-25 13:15:00 SMYM8
05018000 St. Mary Canal at intake near Babb MT   3.19 52   2014-10-25 13:15:00 SCIM8
05018500 St. Mary Canal at St. Mary Crossing near Babb MT   2.03 0.00   2014-10-25 13:15:00 SCCM8
05020500 St. Mary River at International Boundary 7.5 3.99 270 40,000 2014-10-25 13:00:00  
06006000 Red Rock Cr ab Lakes nr Lakeview MT   2.77 Ssn 293 2014-10-25 13:30:00 RRLM8
06012500 Red Rock R bl Lima Reservoir nr Monida MT   1.13 5.4 2,500 2014-10-25 13:30:00 LRRM8
06016000 Beaverhead River at Barretts MT   0.73 116 3,720 2014-10-25 13:15:00 BARM8
06017000 Beaverhead River at Dillon MT   3.61 132 1,740 2014-10-25 13:15:00 DILM8
06018500 Beaverhead River near Twin Bridges MT 7 4.36 256 3,130 2014-10-25 13:15:00 TWNM8
06019500 Ruby River above reservoir near Alder, MT   2.99 128 3,810 2014-10-25 13:45:00 RRRM8
06020600 Ruby River below reservoir near Alder, MT   2.34 47 3,010 2014-10-25 13:45:00 RRBM8
06023000 Ruby River near Twin Bridges MT   2.56 Ssn 1,630 2014-10-25 13:45:00 RTBM8
06023100 Beaverhead River at Twin Bridges, MT   3.27 Ssn 2,830 2014-10-25 13:30:00 TWBM8
06023500 Big Hole River near Jackson MT   1.19 28 938 2014-10-25 13:15:00 JKSM8
06023800 Big Hole River ab Spring Creek nr Jackson MT   2.41 31 305 2014-10-25 14:00:00 SCRM8
06024020 Big Hole River at Miner Creek nr Jackson MT   1.44 132 2,300 2014-10-25 13:15:00 MCKM8
06024450 Big Hole River bl Big Lake Cr at Wisdom MT   2.98 203 4,300 2014-10-25 13:45:00 BGKM8
06024540 Big Hole River bl Mudd Cr nr Wisdom MT   3.13 348 6,660 2014-10-25 13:30:00 BHDM8
06024580 Big Hole River near Wise River MT   3.10 493 9,130 2014-10-25 13:30:00 WSVM8
06025250 Big Hole River at Maiden Rock nr Divide MT   3.42 699 10,600 2014-10-25 13:45:00 MRDM8
06025500 Big Hole River near Melrose MT 6 2.10 741 23,000 2014-10-25 13:15:00 MLRM8
06026210 Big Hole River near Glen MT   2.84 772 11,900 2014-10-25 13:30:00 GNLM8
06026420 Big Hole R bl Hamilton Ditch nr Twin Bridges, MT   1.92 Ssn 11,200 2014-10-25 13:30:00  
06026500 Jefferson River near Twin Bridges MT 10 4.16 1,360 16,500 2014-10-25 13:15:00 TWIM8
06027600 Jefferson River at Parsons Bdg nr Silver Star, MT   4.31 Ssn 13,600 2014-10-25 13:30:00 PBRM8
06033000 Boulder River near Boulder MT   5.30 68 7,000 2014-10-25 13:15:00  
06035000 Willow Creek near Harrison MT   0.76 Ssn 813 2014-09-02 08:15:00 WCHM8
06036650 Jefferson River near Three Forks MT 8 3.57 1,590 17,400 2014-10-25 13:00:00 TFKM8
06036805 Firehole River at Old Faithful, YNP   2.48 53 477 2014-10-25 14:00:00 FOFW4
06036905 Firehole River near West Yellowstone MT   3.10 271 2,050 2014-10-25 13:00:00 FRYW4
06036940 Tantalus Creek at Norris Junction, YNP   1.48 3.6 22 2014-10-25 13:30:00 TCKW4
06037100 Gibbon River at Madison Jct, YNP   4.38 88 1,010 2014-10-25 13:00:00 GMJW4
06037500 Madison River near West Yellowstone MT   1.79 406 2,820 2014-10-25 13:30:00 MDSM8
06038500 Madison River bl Hebgen Lake nr Grayling MT 6550 1.63 851 10,200 2014-10-25 13:45:00 HBDM8
06038800 Madison River at Kirby Ranch nr Cameron MT   1.84 948 5,030 2014-10-25 13:45:00 CMRM8
06040000 Madison River near Cameron MT   2.46 1,160 8,830 2014-10-25 13:15:00 CMNM8
06040800 Madison River ab powerplant nr McAllister MT   3.17 103 5,940 2014-10-25 13:45:00 MRPM8
06041000 Madison River bl Ennis Lake nr McAllister MT   2.26 1,390 9,550 2014-10-25 13:45:00 MADM8
06043500 Gallatin River near Gallatin Gateway MT 6 1.60 488 9,160 2014-10-25 13:00:00 GLGM8
06048650 E Gallatin R ab Water Reclamation Fa nr Bozeman MT   3.22 56   2014-10-25 13:30:00  
06052500 Gallatin River at Logan MT 9 4.72 786 9,840 2014-10-25 13:00:00 LOGM8
06054500 Missouri River at Toston MT 10.5 4.49 3,980 34,000 2014-10-25 13:00:00 TOSM8
06061500 Prickly Pear Creek near Clancy MT   0.90 37 2,300 2014-10-25 13:30:00 PKPM8
06062500 Tenmile Creek near Rimini MT   1.67 6.9 3,290 2014-10-25 13:45:00 RIMM8
06063000 Tenmile Creek near Helena MT   2.32 16 3,770 2014-10-25 13:15:00  
06065500 Missouri River bl Hauser Dam near Helena MT   4.17 4,380 33,300 2014-10-25 13:00:00 HASM8
06066500 Missouri River bl Holter Dam nr Wolf Cr MT   3.93 4,460 34,800 2014-10-25 13:45:00 HTRM8
06071300 Little Prickly Pear Cr at Wolf Cr MT   3.00 54 4,500 2014-10-25 13:45:00 LPPM8
06073500 Dearborn River near Craig MT 6.5 2.95 60 15,400 2014-10-25 13:15:00 DBRM8
06074000 Missouri River at Cascade MT   7.20 4,690 54,250 2014-10-25 13:30:00  
06076690 Smith River near Ft Logan MT   3.10 133 4,600 2014-10-25 13:30:00 SFLM8
06077200 Smith River bl Eagle Cr nr Fort Logan MT   3.32 176 4,030 2014-10-25 13:15:00 SMHM8
06077500 Smith River near Eden MT   3.12 167 12,300 2014-10-25 13:45:00 EDNM8
06078200 Missouri River near Ulm MT 13.5 4.00 4,820 35,000 2014-10-25 13:00:00 ULMM8
06078500 North Fork Sun River near Augusta MT   3.54 115 51,100 2014-10-25 13:30:00 NFSM8
06079000 South Fork Sun River near Augusta MT   1.26 109 4,370 2014-10-25 13:15:00 SSNM8
06082200 Sun River bl Willow Cr nr Augusta MT   1.87 128 46,700 2014-10-25 13:15:00  
06085800 Sun River at Simms MT 7.5 2.29 254 50,000 2014-10-25 13:30:00 SSRM8
06088500 Muddy Creek at Vaughn MT 7 3.16 81 7,600 2014-10-25 13:30:00 MDYM8
06089000 Sun River near Vaughn MT 6 2.39 414 53,500 2014-10-25 13:00:00 VAUM8
06090000 Missouri River at Great Falls MT   10.75

 

  2014-10-25 13:30:00  
06090300 Missouri River near Great Falls MT   3.26 5,340 72,000 2014-10-25 13:45:00 GFLM8
06090500 Belt Creek near Monarch MT   2.34 68 11,000 2014-10-25 13:15:00  
06090650 Lake Creek near Power MT   0.08 0.29 300 2014-10-25 13:30:00 LCPM8
06090800 Missouri River at Fort Benton MT 13.5 2.42 5,120 140,000 2014-10-25 13:30:00 FBNM8
06091700 Two Medicine River bl South Fork nr Browning MT 5.5 2.05 137 11,700 2014-10-25 13:15:00 TMRM8
06093200 Badger Cr bl Four Horns Canal nr Browning MT 7 4.41 129 20,700 2014-10-25 13:15:00 BDCM8
06098500 Cut Bank Creek near Browning MT   2.53 122 5,480 2014-10-25 13:15:00 CBCM8
06099000 Cut Bank Creek at Cut Bank MT   2.03 Rat 16,600 2014-10-25 13:30:00  
06099500 Marias River near Shelby MT 9 3.11 327 241,000 2014-10-25 13:30:00 SHLM8
06101500 Marias River near Chester MT 9 3.62 593 10,400 2014-10-25 13:15:00 MRCM8
06102050 Marias River near Loma MT   1.37 581 10,800 2014-10-25 13:15:00 LOMM8
06102500 Teton River bl South Fork nr Choteau MT   3.76 68 54,600 2014-10-25 13:45:00 TSFM8
06108000 Teton River near Dutton MT 9 1.86 51 71,300 2014-10-25 13:30:00 DTTM8
06108800 Teton River at Loma MT   2.04 46 3,910 2014-10-25 13:30:00 LTRM8
06109500 Missouri River at Virgelle MT 17 3.58 6,180 122,000 2014-10-25 13:00:00 VRGM8
06110020 Judith River above Carr Creek near Utica MT   2.58

 

  2014-10-25 13:30:00  
06111800 Big Spring Cr at R and B Trad Post nr Lewsitown MT   3.71 Rat   2014-10-25 13:30:00  
06114700 Judith River nr mouth, nr Winifred MT   5.52 509 15,300 2014-10-25 13:15:00 JDRM8
06115200 Missouri River near Landusky MT 25 14.49 6,400 137,000 2014-10-25 13:00:00 LDKM8
06118500 South Fork Musselshell R ab Martinsdale MT   3.69

 

5,240 2014-10-25 13:30:00  
06119600 Musselshell River nr Martinsdale, MT   2.19 58 4,780 2014-10-25 13:15:00 MRMM8
06120500 Musselshell River at Harlowton MT 7 2.89 109 7,270 2014-10-25 14:00:00 HLWM8
06123030 Musselshell River ab Mud Cr nr Shawmut MT 6.5 3.44 100 8,900 2014-10-25 13:30:00 SHAM8
06125600 Musselshell River ab Big Coulee Creek at Lavina MT   2.28 129 561 2014-10-25 13:30:00  
06126500 Musselshell River near Roundup MT 10 1.27 58 15,000 2014-10-25 13:00:00 RUPM8
06127500 Musselshell River at Musselshell MT 11 3.17 56 16,200 2014-10-25 13:30:00 MUSM8
06130500 Musselshell River at Mosby MT 10 2.98 101 25,100 2014-10-25 13:45:00 MSBM8
06131200 Nelson Creek near Van Norman MT   1.86 0.04 1,750 2014-10-25 13:15:00  
06132000 Missouri River below Fort Peck Dam MT   1.96

 

65,900 2014-10-25 13:15:00 FPMM8
06133500 N F Milk River ab St. Mary canal nr Browning MT   1.79 20 3,090 2014-10-25 13:15:00 NFMM8
06135000 Milk River at Eastern Crossing of Int Bndry 9.5 1.43 2.7 14,400 2014-10-25 13:15:00 ERNM8
06139500 Big Sandy Creek near Havre MT 5.5 2.49 18 6,000 2014-10-25 13:30:00 BSMM8
06140500 Milk River at Havre MT 10 1.43 89 20,000 2014-10-25 13:15:00 HVRM8
06142400 Clear Creek near Chinook MT 3.5 2.09 24 1,490 2014-10-25 13:30:00 CCMM8
06151500 Battle Creek near Chinook MT 10 1.54 21 19,400 2014-10-25 13:30:00 BCMM8
06154100 Milk River near Harlem MT 21 3.54 224 19,000 2014-10-25 13:30:00 HRLM8
06154400 Peoples Creek near Hays MT   3.09 11 8,460 2014-10-25 13:15:00 PEOM8
06155030 Milk River near Dodson MT 23 5.20 282 13,200 2014-10-25 13:15:00 DMRM8
06155500 Milk River at Malta MT   2.13 239 24,000 2014-10-25 13:45:00  
06164000 Frenchman River at international boundary 12 1.369 0.549 22,700 2014-10-25 13:25:00  
06164510 Milk River at Juneberg Bridge nr Saco MT 20 3.62 332 12,400 2014-10-25 13:00:00 SACM8
06166000 Beaver Cr bl Guston Coulee nr Saco MT 11

 

84 23,500 2014-10-25 13:15:00 GSCM8
06167500 Beaver Creek near Hinsdale MT 14 3.30 37 8,210 2014-10-25 13:30:00 BCHM8
06169500 Rock Creek bl Horse Creek nr int'l boundary   2.76 7.5 5,110 2014-10-25 13:30:00 ORHM8
06172310 Milk River at Tampico MT 23 4.60 684 19,700 2014-10-25 13:30:00 TMPM8
06174500 Milk River at Nashua MT 20 2.74 775 45,300 2014-10-25 12:00:00 NSHM8
06175100 Missouri R at W Frazer Pump Plant nr Frazer MT   7.63

 

  2014-10-25 13:00:00  
06175510 Missouri R at E Frazer Pump Plant nr Frazer MT   42.04

 

  2014-10-25 13:30:00  
06175520 Missouri River near Oswego MT   83.64

 

  2014-10-25 13:45:00  
06177000 Missouri River near Wolf Point MT 23 9.92 5,910 93,200 2014-10-25 13:00:00 RDVM8
06177500 Redwater River at Circle MT 11 3.43 2.9 6,960 2014-10-25 13:30:00 RRCM8
06178000 Poplar River at international boundary 6 2.56 7.1 12,700 2014-10-25 13:15:00 PPRM8
06178500 East Poplar River at international boundary 10 5.32 2.7 4,020 2014-10-25 13:30:00 EPRM8
06181000 Poplar River near Poplar MT 15.5 2.32 64 40,000 2014-10-25 13:30:00 PLRM8
06183450 Big Muddy Creek near Antelope MT 12 2.33 18 3,190 2014-10-25 13:15:00 BGCM8
06185110 Big Muddy Creek nr mouth nr Culbertson MT   5.53 70 1,860 2014-10-25 13:15:00  
06185500 Missouri River near Culbertson MT 19 2.17 5,610 104,000 2014-10-25 13:00:00 CLBM8
06186500 Yellowstone River at Yellowstone Lk Outlet YNP 9 3.46 863 9,950 2014-10-25 13:30:00 YLOW4
06187915 Soda Butte Cr at Park Bndry at Silver Gate   0.85 13 1,250 2014-10-25 13:45:00 SBCM8
06188000 Lamar River nr Tower Ranger Station YNP 15 1.64 274 19,500 2014-10-25 13:15:00 TFLW4
06190540 Boiling River at Mammoth,YNP   1.01 19 36 2014-10-25 13:15:00 BRMW4
06191000 Gardner River near Mammoth YNP   2.21 120 2,110 2014-10-25 13:45:00 GDRM8
06191500 Yellowstone River at Corwin Springs MT 11 1.96 1,620 32,200 2014-10-25 13:00:00 CORM8
06192500 Yellowstone River near Livingston MT 9.5 2.31 2,230 40,600 2014-10-25 13:45:00 LIVM8
06195600 Shields River nr Livingston MT 5.5 1.48 174 5,600 2014-10-25 13:30:00 SLDM8
06200000 Boulder River at Big Timber MT 7 2.88 294 9,940 2014-10-25 13:45:00 BTMM8
06204050 West Rosebud Creek near Roscoe MT   1.01 110 1,630 2014-10-25 14:00:00 WRDM8
06204070 W Rosebud Cr at Emerald Lk Campground nr Roscoe   1.66 88 1,390 2014-10-25 13:30:00 WREM8
06205000 Stillwater River near Absarokee MT 6.5 2.22 554 12,000 2014-10-25 13:15:00 SRAM8
06207500 Clarks Fork Yellowstone River nr Belfry MT 8 1.34 342 14,800 2014-10-25 14:00:00 BFYM8
06208500 Clarks Fork Yellowstone River at Edgar MT 8.5 2.42 584 11,100 2014-10-25 13:30:00 EDGM8
06209500 Rock Creek near Red Lodge MT 7.5 4.95 78 3,110 2014-10-25 14:00:00 ROKM8
06211000 Red Lodge Cr ab Cooney Re nr Boyd MT   2.03 34 4,700 2014-10-25 13:15:00 BYDM8
06211500 Willow Creek near Boyd MT   2.78 27 2,110 2014-10-25 13:30:00 BOYM8
06214500 Yellowstone River at Billings MT 13.5 3.53 4,740 82,000 2014-10-25 13:00:00 BILM8
06216900 Pryor Creek nr Huntley MT   4.12 Rat 17,500 2014-10-25 13:30:00  
06287000 Bighorn River near St. Xavier, MT   61.16 2,970 37,400 2014-10-25 13:15:00 STXM8
06287800 Bighorn River at bridge, at St. Xavier, MT   7.16 3,110 2,200 2014-10-25 13:30:00  
06288400 Bighorn River at Two Leggins Bridge, near Hardin   10.70 3,140 6,740 2014-10-25 13:30:00  
06289000 Little Bighorn River at State Line nr Wyola MT   2.30 91 2,730 2014-10-25 14:00:00 LBSM8
06294000 Little Bighorn River near Hardin MT 8 2.93 188 22,600 2014-10-25 13:15:00 HRDM8
06294500 Bighorn River ab Tullock Cr nr Bighorn MT 9 2.36 3,310 33,200 2014-10-25 13:00:00 BGHM8
06295000 Yellowstone River at Forsyth MT 14 2.70 8,250 109,800 2014-10-25 13:45:00 FRYM8
06295113 Rosebud C at Reservation Bndry nr Kirby MT   3.13 10 1,720 2014-10-25 13:45:00 RCRM8
06306300 Tongue River at State Line nr Decker MT   2.70 233 17,500 2014-10-25 13:45:00 DSLM8
06307500 Tongue River at Tongue R Dam nr Decker MT   11.40 261 10,800 2014-10-25 13:30:00 DKRM8
06307600 Hanging Woman Creek near Birney MT   0.94 0.47 2,060 2014-10-25 11:00:00 HWCM8
06307616 Tongue R at Birney Day School Br nr Birney MT 6 1.76 303 5,340 2014-10-25 13:30:00 BNYM8
06307740 Otter Creek at Ashland MT   1.50 5.9 425 2014-10-25 13:00:00 OCAM8
06307830 Tongue R bl Brandenberg bridge nr Ashland MT   3.35 344 8,340 2014-10-25 13:15:00  
06308400 Pumpkin Creek near Miles City MT 13 2.39 0.86 7,900 2014-10-25 13:45:00 PMKM8
06308500 Tongue River at Miles City MT 10 3.02 361 15,300 2014-10-25 13:00:00 MICM8
06309000 Yellowstone River at Miles City MT 13 4.10 8,570 102,000 2014-10-25 13:00:00 MILM8
06324500 Powder River at Moorhead MT   2.97 273 100,000 2014-10-25 13:45:00 MHDM8
06326500 Powder River near Locate MT 9 1.33 351 31,000 2014-10-25 13:00:00 LOCM8
06327500 Yellowstone River at Glendive MT 53.5 43.97 9,810 125,000 2014-10-25 13:00:00 GLNM8
06329500 Yellowstone River near Sidney MT 19 5.55 9,390 159,000 2014-10-25 12:00:00 SIDM8
12301300 Tobacco River near Eureka MT   2.18 97 3,180 2014-10-25 13:00:00 TOBM8
12301933 Kootenai River bl Libby Dam nr Libby MT 27.5 17.73 3,880 54,000 2014-10-25 13:00:00 KBDM8
12302055 Fisher River near Libby MT 7.5 3.17 172 12,000 2014-10-25 13:45:00 FISM8
12304500 Yaak River near Troy MT 8 3.34 211 13,400 2014-10-25 13:45:00 TRYM8
12323240 Blacktail Creek at Butte MT 4.3 1.03 13 303 2014-10-25 13:45:00 BKTM8
12323250 Silver Bow Cr bl Blacktail Cr at Butte MT   1.61 26 447 2014-10-25 13:45:00 SLVM8
12323600 Silver Bow Creek at Opportunity MT   1.97 49 1,300 2014-10-25 13:45:00 OPPM8
12323670 Mill Creek nr Anaconda, MT   2.25 22 432 2014-10-25 13:00:00 MCAM8
12323700 Mill Creek at Opportunity, MT   2.25 16 284 2014-10-25 13:30:00 MCOM8
12323710 Willow Creek nr Anaconda, MT   1.88 3.2 165 2014-10-25 13:00:00 WCAM8
12323720 Willow Creek at Opportunity, MT   4.02 9.1 202 2014-10-25 13:30:00 WCOM8
12323750 Silver Bow Creek at Warm Springs MT   2.48 123 1,320 2014-10-25 13:30:00 WMSM8
12323760 Warm Springs Creek near Anaconda MT 4.4 2.19 96 930 2014-10-25 13:30:00 ANDM8
12323770 Warm Springs Creek at Warm Springs MT   2.82 35 828 2014-10-25 13:45:00 WSPM8
12323800 Clark Fork near Galen MT   2.38 184 1,410 2014-10-25 13:30:00 GALM8
12323840 Lost Creek near Anaconda MT   2.86 9.9 101 2014-10-25 13:00:00  
12323850 Lost Creek near Galen, MT   2.05 46 117 2014-10-25 13:30:00 LCGM8
12324200 Clark Fork at Deer Lodge MT 6 2.96 306 2,500 2014-10-25 13:30:00 DLGM8
12324400 Clark Fork ab Little Blackfoot R nr Garrison MT   3.52 346 2,690 2014-10-25 13:45:00  
12324590 Little Blackfoot River near Garrison MT   1.14 84 8,650 2014-10-25 13:30:00 LBFM8
12324680 Clark Fork at Goldcreek MT   4.79 542 12,000 2014-10-25 13:00:00 GLDM8
12325000 Georgetown Lake near Philipsburg, MT   6428.53

 

  2014-10-25 13:15:00  
12325500 Flint Creek near Southern Cross MT   0.46 12 192 2014-10-25 13:45:00 FTCM8
12329500 Flint Creek at Maxville MT   2.23 72 1,680 2014-10-25 13:45:00 FLNM8
12330000 Boulder Creek at Maxville MT   1.46 36 1,580 2014-10-25 13:30:00 BMXM8
12331500 Flint Creek near Drummond MT   2.60 180 1,460 2014-10-25 13:30:00 FCKM8
12331800 Clark Fork near Drummond MT 8 3.25 663 9,800 2014-10-25 13:15:00 DRMM8
12332000 Middle Fork Rock Cr nr Philipsburg MT   1.63 64 1,680 2014-10-25 13:15:00 MFRM8
12334510 Rock Creek near Clinton MT 9 5.30 335 6,500 2014-10-25 13:45:00 RCCM8
12334550 Clark Fork at Turah Bridge nr Bonner MT   4.25 1,130 13,300 2014-10-25 13:30:00 BNRM8
12335100 Blackfoot R ab Nevada Cr nr Helmville MT   3.87 180 4,860 2014-10-25 13:45:00 BLAM8
12335500 Nevada Cr ab reservoir, nr Helmville, MT   1.59 15 1,800 2014-10-25 13:45:00 NVDM8
12338300 NF Blackfoot R ab Dry Gulch nr Ovando MT   2.57 144 4,700 2014-10-25 13:00:00 NFRM8
12340000 Blackfoot River near Bonner MT 10 2.16 597 19,200 2014-10-25 13:45:00 BONM8
12340500 Clark Fork above Missoula MT 10 3.11 1,690 48,000 2014-10-25 14:00:00 ABOM8
12342500 West Fork Bitterroot River nr Conner MT   1.28 81 4,060 2014-10-25 13:15:00 WFBM8
12344000 Bitterroot River near Darby MT 7.5 1.71 404 11,500 2014-10-25 13:15:00 DARM8
12350250 Bitterroot River at Bell Crossing nr Victor MT 11 5.16 1,160 18,700 2014-10-25 13:45:00 VIBM8
12352500 Bitterroot River near Missoula MT 11 3.81 1,560 38,300 2014-10-25 13:45:00 BITM8
12353000 Clark Fork below Missoula MT 11 2.00 3,180 55,100 2014-10-25 14:00:00 BELM8
12354000 St. Regis River near St. Regis, MT 8 2.20 96 29,000 2014-10-25 13:45:00 STRM8
12354500 Clark Fork at St. Regis MT 19 5.76 3,470 68,900 2014-10-25 13:45:00 SRGM8
12355000 Flathead River at Flathead British Columbia 10.5 4.09 238 16,300 2014-10-25 13:30:00 NFFQ2
12355500 N F Flathead River nr Columbia Falls MT 13 2.12 930 69,100 2014-10-25 13:45:00 FCFM8
12358500 M F Flathead River near West Glacier MT 10 2.61 1,510 140,000 2014-10-25 13:45:00 WGCM8
12359800 S F Flathead R ab Twin C nr Hungry Horse MT   5.65 852 50,900 2014-10-25 13:45:00 TNCM8
12362000 Hungry Horse Reservoir nr Hungry Horse MT   3547.00

 

  2014-10-25 13:45:00 HHWM8
12362500 S F Flathead River nr Columbia Falls MT   4.43 1,090 46,200 2014-10-25 13:45:00  
12363000 Flathead River at Columbia Falls MT 13 3.34 3,790 176,000 2014-10-25 13:45:00 CFMM8
12365700 Stillwater River at Lawrence Park, at Kalispell 7.5 3.03 137 3,940 2014-10-25 13:45:00 SRLM8
12366080 Whitefish River nr mouth at Kalispell, MT 8.3 1.93 96 1,450 2014-10-25 13:45:00 WFRM8
12366500 Flathead River at Foys Bend nr Kalispell MT   94.29

 

  2014-10-25 13:45:00  
12369000 Flathead River near Bigfork MT   90.95 3,980 50,100 2014-10-25 13:45:00 FRBM8
12370000 Swan River near Bigfork, MT 6.5 2.58 605 8,890 2014-10-25 13:00:00 SWRM8
12371550 Flathead Lake at Polson MT   2891.56

 

  2014-10-25 13:30:00 KERM8
12372000 Flathead River near Polson MT 18 6.45 10,100 110,000 2014-10-25 13:30:00 FPOM8
12374250 Mill Cr ab Bassoo Cr nr Niarada MT   1.23 4.1 283 2014-10-25 13:15:00  
12375900 South Crow Creek near Ronan MT   2.02 9.6 608 2014-10-25 13:15:00  
12377150 Mission Creek ab reservoir nr St. Ignatius MT   1.56 27 706 2014-10-25 13:15:00 MSNM8
12381400 South Fork Jocko River near Arlee MT   1.18 22 1,220 2014-10-25 13:15:00 ARLM8
12388700 Flathead River at Perma MT   9.36 9,890 54,900 2014-10-25 13:30:00 PERM8
12389000 Clark Fork near Plains MT 16 5.23 13,100 134,000 2014-10-25 13:45:00 PLNM8
12389500 Thompson River near Thompson Falls MT 7 2.80 181 6,190 2014-10-25 13:45:00 THRM8
12390700 Prospect Creek at Thompson Falls MT 7.5 0.61 48 5,490 2014-10-25 13:15:00 PRCM8
480608115242901 Libby Wetland Site bl Schrieber Lake nr Libby, MT   0.69 1.1 34 2014-10-25 13:30:00